Time;durP1;ratioP1;P1;durP2;ratioP2;P2;SDS_P1;SDS_P2;PMS_P1;PMS_P2;Temp;Humidity;BMP_temperature;BMP_pressure;BME280_temperature;BME280_humidity;BME280_pressure;Samples;Min_cycle;Max_cycle;Signal;HPM_P1;HPM_P2
2022/11/23 00:00:42;;;;;;;10.18;6.68;;;;;;;;;;5116194;28;20030;-72
2022/11/23 00:03:28;;;;;;;7.75;5.97;;;;;;;;;;5115411;28;20027;-71
2022/11/23 00:06:14;;;;;;;10.02;6.25;;;;;;;;;;5116042;28;20055;-71
2022/11/23 00:08:59;;;;;;;9.35;6.40;;;;;;;;;;5116269;28;20345;-72
2022/11/23 00:11:45;;;;;;;12.20;6.97;;;;;;;;;;5100997;28;20016;-72
2022/11/23 00:14:31;;;;;;;10.43;7.13;;;;;;;;;;5114042;28;20094;-73
2022/11/23 00:17:16;;;;;;;9.07;6.53;;;;;;;;;;5115709;28;20459;-72
2022/11/23 00:20:02;;;;;;;12.30;7.00;;;;;;;;;;5102212;28;20038;-71
2022/11/23 00:22:48;;;;;;;9.55;6.45;;;;;;;;;;5114842;28;20028;-71
2022/11/23 00:25:33;;;;;;;9.73;6.75;;;;;;;;;;5115259;28;20031;-71
2022/11/23 00:28:19;;;;;;;10.07;6.88;;;;;;;;;;5115246;28;20047;-72
2022/11/23 00:31:05;;;;;;;10.35;6.72;;;;;;;;;;5115190;28;20016;-71
2022/11/23 00:33:52;;;;;;;10.13;6.85;;;;;;;;;;5114548;28;20106;-71
2022/11/23 00:36:38;;;;;;;12.80;7.45;;;;;;;;;;5100209;28;20040;-71
2022/11/23 00:39:23;;;;;;;13.27;7.55;;;;;;;;;;5114870;28;20028;-73
2022/11/23 00:42:09;;;;;;;13.38;7.60;;;;;;;;;;5113778;28;20031;-71
2022/11/23 00:44:54;;;;;;;14.07;7.35;;;;;;;;;;5114641;28;20059;-71
2022/11/23 00:47:40;;;;;;;11.10;6.95;;;;;;;;;;5114413;28;20463;-71
2022/11/23 00:50:25;;;;;;;14.25;8.38;;;;;;;;;;5114572;28;20028;-71
2022/11/23 00:53:11;;;;;;;14.50;7.15;;;;;;;;;;5115000;28;20024;-71
2022/11/23 00:55:57;;;;;;;15.75;7.07;;;;;;;;;;5114446;28;20357;-71
2022/11/23 00:58:46;;;;;;;13.90;7.07;;;;;;;;;;5101224;28;20451;-72
2022/11/23 01:01:33;;;;;;;12.50;7.03;;;;;;;;;;5113555;28;20023;-71
2022/11/23 01:04:19;;;;;;;11.02;7.22;;;;;;;;;;5114050;28;20362;-72
2022/11/23 01:07:04;;;;;;;12.98;6.80;;;;;;;;;;5113644;28;20041;-72
2022/11/23 01:09:50;;;;;;;11.77;7.70;;;;;;;;;;5114118;28;20016;-71
2022/11/23 01:12:35;;;;;;;15.13;8.52;;;;;;;;;;5112832;28;20031;-71
2022/11/23 01:15:21;;;;;;;22.63;10.80;;;;;;;;;;5114263;28;20030;-72
2022/11/23 01:18:07;;;;;;;16.05;8.55;;;;;;;;;;5115018;28;20023;-71
2022/11/23 01:20:52;;;;;;;19.92;10.43;;;;;;;;;;5114409;28;20020;-71
2022/11/23 01:23:38;;;;;;;17.33;8.93;;;;;;;;;;5114487;28;20031;-71
2022/11/23 01:26:24;;;;;;;16.00;7.57;;;;;;;;;;5113236;28;20103;-71
2022/11/23 01:29:10;;;;;;;13.68;7.00;;;;;;;;;;5113181;28;20024;-71
2022/11/23 01:31:56;;;;;;;12.52;7.03;;;;;;;;;;5113693;28;20020;-71
2022/11/23 01:34:41;;;;;;;13.20;7.00;;;;;;;;;;5113784;28;20043;-71
2022/11/23 01:37:27;;;;;;;12.57;7.15;;;;;;;;;;5113570;28;20136;-72
2022/11/23 01:40:12;;;;;;;12.00;6.22;;;;;;;;;;5114012;28;20025;-71
2022/11/23 01:42:59;;;;;;;9.10;6.03;;;;;;;;;;5113689;28;20030;-72
2022/11/23 01:45:51;;;;;;;11.23;6.50;;;;;;;;;;5112990;28;20447;-72
2022/11/23 01:48:42;;;;;;;10.20;6.60;;;;;;;;;;5113580;28;20460;-72
2022/11/23 01:51:30;;;;;;;10.75;6.95;;;;;;;;;;5114164;28;20015;-72
2022/11/23 01:54:20;;;;;;;11.10;6.82;;;;;;;;;;5115038;28;20081;-73
2022/11/23 01:57:08;;;;;;;14.30;7.15;;;;;;;;;;5113553;28;20103;-72
2022/11/23 01:59:54;;;;;;;15.45;7.57;;;;;;;;;;5099246;28;20016;-72
2022/11/23 02:02:42;;;;;;;14.85;7.50;;;;;;;;;;5113528;28;20106;-71
2022/11/23 02:05:37;;;;;;;13.95;7.15;;;;;;;;;;5114041;28;20016;-71
2022/11/23 02:08:24;;;;;;;14.05;7.47;;;;;;;;;;5113819;28;20027;-72
2022/11/23 02:11:11;;;;;;;12.57;7.15;;;;;;;;;;5114605;28;20027;-71
2022/11/23 02:13:57;;;;;;;13.98;8.02;;;;;;;;;;5114518;28;20460;-71
2022/11/23 02:16:42;;;;;;;14.48;8.20;;;;;;;;;;5113419;28;20091;-71
2022/11/23 02:19:35;;;;;;;16.75;8.30;;;;;;;;;;5114300;28;20025;-71
2022/11/23 02:22:32;;;;;;;12.73;7.88;;;;;;;;;;5113348;28;20065;-71
2022/11/23 02:25:36;;;;;;;15.85;7.40;;;;;;;;;;5113552;28;20061;-72
2022/11/23 02:28:25;;;;;;;15.57;8.10;;;;;;;;;;5113266;28;20027;-72
2022/11/23 02:31:11;;;;;;;13.18;7.45;;;;;;;;;;5113442;28;20026;-72
2022/11/23 02:33:57;;;;;;;13.95;7.60;;;;;;;;;;5113084;28;20024;-71
2022/11/23 02:36:46;;;;;;;14.35;7.45;;;;;;;;;;5112975;28;20118;-72
2022/11/23 02:39:43;;;;;;;11.32;6.97;;;;;;;;;;5114130;28;20020;-72
2022/11/23 02:42:29;;;;;;;12.00;6.78;;;;;;;;;;5113442;28;20050;-72
2022/11/23 02:45:20;;;;;;;10.50;7.13;;;;;;;;;;5113354;28;20024;-71
2022/11/23 02:48:06;;;;;;;10.90;6.75;;;;;;;;;;5116673;28;20080;-71
2022/11/23 02:50:52;;;;;;;9.90;6.65;;;;;;;;;;5117256;28;20016;-72
2022/11/23 02:53:37;;;;;;;11.82;6.57;;;;;;;;;;5116665;28;20027;-71
2022/11/23 02:56:23;;;;;;;10.40;6.65;;;;;;;;;;5102090;28;20022;-73
2022/11/23 02:59:08;;;;;;;9.48;6.85;;;;;;;;;;5116662;28;20076;-72
2022/11/23 03:01:54;;;;;;;11.65;7.20;;;;;;;;;;5117446;28;20099;-72
2022/11/23 03:04:39;;;;;;;11.63;6.80;;;;;;;;;;5117642;28;20016;-71
2022/11/23 03:07:25;;;;;;;10.70;6.80;;;;;;;;;;5116046;28;20023;-72
2022/11/23 03:10:11;;;;;;;8.95;6.60;;;;;;;;;;5116390;28;20082;-71
2022/11/23 03:12:56;;;;;;;11.52;6.40;;;;;;;;;;5101881;28;20016;-72
2022/11/23 03:15:43;;;;;;;12.18;7.70;;;;;;;;;;5115328;28;20042;-71
2022/11/23 03:18:28;;;;;;;11.45;7.20;;;;;;;;;;5116070;28;20444;-71
2022/11/23 03:21:14;;;;;;;12.07;8.60;;;;;;;;;;5116518;28;20329;-72
2022/11/23 03:23:59;;;;;;;21.02;11.73;;;;;;;;;;5116521;28;20102;-71
2022/11/23 03:26:45;;;;;;;13.57;8.00;;;;;;;;;;5116454;28;20031;-72
2022/11/23 03:29:30;;;;;;;15.23;8.55;;;;;;;;;;5116102;28;20016;-71
2022/11/23 03:32:16;;;;;;;12.88;8.38;;;;;;;;;;5116332;28;20029;-72
2022/11/23 03:35:02;;;;;;;12.57;9.20;;;;;;;;;;5116190;28;20321;-71
2022/11/23 03:37:48;;;;;;;11.88;7.88;;;;;;;;;;5115449;28;20529;-71
2022/11/23 03:40:35;;;;;;;12.95;7.10;;;;;;;;;;5116757;28;20059;-71
2022/11/23 03:43:21;;;;;;;10.35;7.65;;;;;;;;;;5101539;28;20077;-71
2022/11/23 03:46:06;;;;;;;11.77;7.55;;;;;;;;;;5116334;28;20031;-73
2022/11/23 03:48:52;;;;;;;20.80;12.90;;;;;;;;;;5116126;28;20019;-72
2022/11/23 03:51:37;;;;;;;12.77;8.88;;;;;;;;;;5116208;28;20452;-71
2022/11/23 03:54:23;;;;;;;14.02;8.90;;;;;;;;;;5116087;28;20448;-71
2022/11/23 03:57:08;;;;;;;16.38;10.82;;;;;;;;;;5115921;28;20031;-72
2022/11/23 03:59:54;;;;;;;12.45;8.75;;;;;;;;;;5102213;28;20015;-73
2022/11/23 04:02:40;;;;;;;11.43;8.02;;;;;;;;;;5116199;28;20030;-72
2022/11/23 04:05:26;;;;;;;10.60;7.63;;;;;;;;;;5116602;28;20024;-71
2022/11/23 04:08:12;;;;;;;16.05;7.85;;;;;;;;;;5100510;28;20057;-72
2022/11/23 04:10:58;;;;;;;13.30;7.07;;;;;;;;;;5115494;28;20030;-72
2022/11/23 04:13:43;;;;;;;9.57;6.47;;;;;;;;;;5114982;28;20024;-72
2022/11/23 04:16:29;;;;;;;11.98;6.88;;;;;;;;;;5114829;28;20032;-71
2022/11/23 04:19:14;;;;;;;11.57;8.10;;;;;;;;;;5115601;28;20015;-72
2022/11/23 04:22:00;;;;;;;14.27;9.07;;;;;;;;;;5115150;28;20098;-72
2022/11/23 04:24:46;;;;;;;13.38;8.50;;;;;;;;;;5115468;28;20027;-72
2022/11/23 04:27:31;;;;;;;12.00;7.30;;;;;;;;;;5115948;28;20030;-72
2022/11/23 04:30:17;;;;;;;9.23;7.00;;;;;;;;;;5115347;28;20030;-72
2022/11/23 04:33:02;;;;;;;12.05;7.20;;;;;;;;;;5114631;28;20397;-70
2022/11/23 04:35:48;;;;;;;12.02;7.80;;;;;;;;;;5114873;28;20103;-71
2022/11/23 04:38:33;;;;;;;14.38;7.88;;;;;;;;;;5094335;28;20048;-71
2022/11/23 04:41:19;;;;;;;11.90;7.43;;;;;;;;;;5094919;28;20028;-73
2022/11/23 04:44:05;;;;;;;19.63;12.95;;;;;;;;;;5095707;28;20023;-72
2022/11/23 04:46:51;;;;;;;24.48;17.60;;;;;;;;;;5094161;28;20028;-72
2022/11/23 04:49:36;;;;;;;28.80;19.08;;;;;;;;;;5080031;28;20016;-72
2022/11/23 04:52:22;;;;;;;31.00;20.25;;;;;;;;;;5095371;28;20012;-71
2022/11/23 04:55:07;;;;;;;32.20;23.02;;;;;;;;;;5095710;28;20031;-72
2022/11/23 04:57:53;;;;;;;36.35;25.75;;;;;;;;;;5079643;28;20441;-71
2022/11/23 05:00:39;;;;;;;38.00;25.40;;;;;;;;;;5095231;28;20034;-72
2022/11/23 05:03:24;;;;;;;40.53;27.02;;;;;;;;;;5095180;28;20016;-72
2022/11/23 05:06:10;;;;;;;32.53;21.13;;;;;;;;;;5093789;28;20509;-73
2022/11/23 05:08:55;;;;;;;29.85;19.80;;;;;;;;;;5094896;28;20438;-72
2022/11/23 05:11:41;;;;;;;18.92;11.60;;;;;;;;;;5094823;28;20031;-72
2022/11/23 05:14:27;;;;;;;13.88;9.52;;;;;;;;;;5094700;28;20024;-72
2022/11/23 05:17:12;;;;;;;15.68;10.10;;;;;;;;;;5093041;28;20012;-74
2022/11/23 05:19:58;;;;;;;14.93;9.18;;;;;;;;;;5094283;28;20034;-73
2022/11/23 05:22:43;;;;;;;14.40;8.85;;;;;;;;;;5079759;28;20023;-73
2022/11/23 05:25:29;;;;;;;16.88;8.93;;;;;;;;;;5096321;27;20020;-72
2022/11/23 05:28:16;;;;;;;13.25;9.35;;;;;;;;;;5094684;28;20103;-71
2022/11/23 05:31:02;;;;;;;12.32;8.60;;;;;;;;;;5095097;28;20466;-71
2022/11/23 05:33:48;;;;;;;13.77;9.10;;;;;;;;;;5094686;28;20024;-71
2022/11/23 05:36:33;;;;;;;17.00;11.45;;;;;;;;;;5100041;28;20042;-71
2022/11/23 05:39:19;;;;;;;20.67;11.85;;;;;;;;;;5099957;28;20027;-71
2022/11/23 05:42:04;;;;;;;19.52;11.75;;;;;;;;;;5114857;28;20115;-72
2022/11/23 05:44:50;;;;;;;16.95;11.10;;;;;;;;;;5113384;28;20107;-72
2022/11/23 05:47:35;;;;;;;16.27;11.05;;;;;;;;;;5100176;28;20023;-71
2022/11/23 05:50:24;;;;;;;16.83;9.93;;;;;;;;;;5114322;28;20012;-72
2022/11/23 05:53:09;;;;;;;13.90;9.93;;;;;;;;;;5113347;28;20052;-71
2022/11/23 05:56:00;;;;;;;18.17;10.25;;;;;;;;;;5113785;28;20016;-71
2022/11/23 05:58:45;;;;;;;18.30;9.98;;;;;;;;;;5114365;28;20489;-71
2022/11/23 06:01:32;;;;;;;14.70;10.02;;;;;;;;;;5113943;28;20081;-75
2022/11/23 06:04:17;;;;;;;16.25;10.90;;;;;;;;;;5115071;28;20039;-72
2022/11/23 06:07:03;;;;;;;16.17;10.43;;;;;;;;;;5101114;28;20419;-71
2022/11/23 06:09:48;;;;;;;16.67;11.63;;;;;;;;;;5099823;28;20358;-72
2022/11/23 06:12:34;;;;;;;20.70;11.77;;;;;;;;;;5113155;28;20054;-71
2022/11/23 06:15:19;;;;;;;23.52;11.90;;;;;;;;;;5114633;28;20019;-71
2022/11/23 06:18:05;;;;;;;19.27;11.60;;;;;;;;;;5113455;28;20024;-71
2022/11/23 06:20:50;;;;;;;19.05;11.57;;;;;;;;;;5113812;28;20058;-71
2022/11/23 06:23:36;;;;;;;16.80;10.23;;;;;;;;;;5102815;28;20359;-72
2022/11/23 06:26:22;;;;;;;14.73;10.32;;;;;;;;;;5116807;28;20019;-70
2022/11/23 06:29:07;;;;;;;17.65;11.77;;;;;;;;;;5118713;28;20030;-71
2022/11/23 06:31:53;;;;;;;13.75;7.88;;;;;;;;;;5117483;28;20019;-72
2022/11/23 06:34:39;;;;;;;13.25;8.85;;;;;;;;;;5102721;28;20016;-72
2022/11/23 06:37:24;;;;;;;12.55;8.70;;;;;;;;;;5117096;28;20087;-71
2022/11/23 06:40:10;;;;;;;15.20;9.00;;;;;;;;;;5116834;28;20011;-70
2022/11/23 06:42:59;;;;;;;13.68;9.10;;;;;;;;;;5116363;28;20042;-70
2022/11/23 06:45:45;;;;;;;13.75;8.98;;;;;;;;;;5116865;28;20027;-72
2022/11/23 06:48:31;;;;;;;13.13;8.68;;;;;;;;;;5116888;28;20031;-71
2022/11/23 06:51:16;;;;;;;12.35;8.43;;;;;;;;;;5117188;28;20015;-70
2022/11/23 06:54:02;;;;;;;15.40;8.45;;;;;;;;;;5116760;28;20397;-70
2022/11/23 06:56:47;;;;;;;15.25;9.38;;;;;;;;;;5116640;28;20023;-71
2022/11/23 06:59:33;;;;;;;14.73;9.65;;;;;;;;;;5117274;28;20038;-72
2022/11/23 07:02:18;;;;;;;15.55;10.07;;;;;;;;;;5116565;28;20047;-71
2022/11/23 07:05:04;;;;;;;16.55;11.20;;;;;;;;;;5116975;28;20023;-72
2022/11/23 07:07:50;;;;;;;21.98;15.00;;;;;;;;;;5117435;28;20020;-71
2022/11/23 07:10:35;;;;;;;24.40;15.90;;;;;;;;;;5117269;28;20020;-72
2022/11/23 07:13:21;;;;;;;29.58;16.98;;;;;;;;;;5101904;28;20035;-71
2022/11/23 07:16:07;;;;;;;30.10;20.25;;;;;;;;;;5103195;28;20073;-71
2022/11/23 07:18:52;;;;;;;31.02;18.70;;;;;;;;;;5117458;28;20432;-71
2022/11/23 07:21:38;;;;;;;31.65;19.90;;;;;;;;;;5116627;28;20019;-71
2022/11/23 07:24:23;;;;;;;33.95;20.23;;;;;;;;;;5116286;28;20092;-71
2022/11/23 07:27:09;;;;;;;30.23;16.50;;;;;;;;;;5115959;28;20024;-70
2022/11/23 07:29:55;;;;;;;26.40;16.95;;;;;;;;;;5116680;28;20016;-70
2022/11/23 07:32:40;;;;;;;30.73;19.92;;;;;;;;;;5116432;28;20015;-71
2022/11/23 07:35:26;;;;;;;33.90;21.02;;;;;;;;;;5116739;28;20016;-71
2022/11/23 07:38:11;;;;;;;32.25;19.48;;;;;;;;;;5115968;28;20047;-71
2022/11/23 07:40:59;;;;;;;30.88;20.10;;;;;;;;;;5116211;28;20108;-71
2022/11/23 07:43:45;;;;;;;33.13;19.38;;;;;;;;;;5109826;28;20033;-71
2022/11/23 07:46:30;;;;;;;34.22;20.52;;;;;;;;;;5116291;28;20020;-71
2022/11/23 07:49:16;;;;;;;35.00;21.98;;;;;;;;;;5115477;28;20031;-71
2022/11/23 07:52:01;;;;;;;39.60;23.13;;;;;;;;;;5116258;28;20320;-71
2022/11/23 07:54:47;;;;;;;34.78;20.17;;;;;;;;;;5115994;28;20016;-72
2022/11/23 07:57:33;;;;;;;32.38;18.85;;;;;;;;;;5114714;28;20023;-72
2022/11/23 08:00:19;;;;;;;27.67;16.13;;;;;;;;;;5101956;28;20035;-72
2022/11/23 08:03:04;;;;;;;31.30;17.98;;;;;;;;;;5115988;28;20032;-71
2022/11/23 08:05:50;;;;;;;34.67;19.25;;;;;;;;;;5116116;28;20045;-71
2022/11/23 08:08:35;;;;;;;34.65;20.60;;;;;;;;;;5101932;28;20430;-72
2022/11/23 08:11:21;;;;;;;36.20;21.50;;;;;;;;;;5116281;28;20463;-71
2022/11/23 08:14:07;;;;;;;34.45;21.35;;;;;;;;;;5115456;28;20012;-71
2022/11/23 08:16:52;;;;;;;37.88;22.38;;;;;;;;;;5115368;28;20012;-72
2022/11/23 08:19:38;;;;;;;41.47;25.30;;;;;;;;;;5115880;28;20447;-71
2022/11/23 08:22:23;;;;;;;38.33;23.00;;;;;;;;;;5101237;28;20061;-71
2022/11/23 08:25:09;;;;;;;39.00;23.85;;;;;;;;;;5114977;28;20437;-71
2022/11/23 08:28:00;;;;;;;30.92;22.17;;;;;;;;;;5101357;28;20436;-71
2022/11/23 08:30:46;;;;;;;29.42;20.48;;;;;;;;;;5115441;28;20019;-72
2022/11/23 08:33:31;;;;;;;35.97;21.70;;;;;;;;;;5115133;28;20070;-72
2022/11/23 08:36:17;;;;;;;32.28;21.13;;;;;;;;;;5101535;28;20131;-71
2022/11/23 08:39:03;;;;;;;30.00;19.52;;;;;;;;;;5115594;28;20023;-72
2022/11/23 08:41:48;;;;;;;32.65;19.15;;;;;;;;;;5101742;28;20053;-71
2022/11/23 08:44:34;;;;;;;33.20;18.23;;;;;;;;;;5114582;28;20020;-71
2022/11/23 08:47:19;;;;;;;27.27;18.00;;;;;;;;;;5114563;28;20098;-72
2022/11/23 08:50:05;;;;;;;30.77;18.65;;;;;;;;;;5114502;28;20371;-71
2022/11/23 08:52:54;;;;;;;28.65;18.80;;;;;;;;;;5095023;28;20019;-72
2022/11/23 08:55:40;;;;;;;31.80;18.45;;;;;;;;;;5100796;28;20500;-73
2022/11/23 08:58:26;;;;;;;32.67;19.75;;;;;;;;;;5100054;28;20026;-71
2022/11/23 09:01:13;;;;;;;32.05;19.17;;;;;;;;;;5113531;28;20378;-72
2022/11/23 09:03:59;;;;;;;32.72;20.15;;;;;;;;;;5101793;28;20022;-71
2022/11/23 09:06:44;;;;;;;37.83;22.33;;;;;;;;;;5101563;28;20024;-71
2022/11/23 09:09:30;;;;;;;44.63;26.50;;;;;;;;;;5114812;28;20028;-73
2022/11/23 09:12:16;;;;;;;73.22;39.08;;;;;;;;;;5114326;28;20064;-72
2022/11/23 09:15:01;;;;;;;37.42;23.08;;;;;;;;;;5100894;28;20027;-72
2022/11/23 09:17:47;;;;;;;38.47;25.17;;;;;;;;;;5114452;28;20110;-71
2022/11/23 09:20:32;;;;;;;35.20;21.70;;;;;;;;;;5091269;28;20107;-71
2022/11/23 09:23:18;;;;;;;34.90;20.10;;;;;;;;;;5114133;28;20031;-72
2022/11/23 09:26:04;;;;;;;29.58;19.20;;;;;;;;;;5100547;28;20452;-72
2022/11/23 09:28:49;;;;;;;33.55;20.50;;;;;;;;;;5114728;28;20063;-71
2022/11/23 09:31:35;;;;;;;30.48;20.00;;;;;;;;;;5114395;28;20019;-72
2022/11/23 09:34:24;;;;;;;32.83;20.63;;;;;;;;;;5114376;28;20019;-72
2022/11/23 09:37:09;;;;;;;36.60;21.80;;;;;;;;;;5114526;28;20075;-72
2022/11/23 09:39:55;;;;;;;36.15;22.02;;;;;;;;;;5114687;28;20027;-72
2022/11/23 09:42:50;;;;;;;33.35;21.83;;;;;;;;;;5101496;28;20012;-72
2022/11/23 09:45:44;;;;;;;35.65;21.85;;;;;;;;;;5115231;28;20015;-71
2022/11/23 09:48:48;;;;;;;35.17;22.13;;;;;;;;;;5113879;28;20019;-72
2022/11/23 09:51:35;;;;;;;37.00;21.50;;;;;;;;;;5100589;28;20027;-72
2022/11/23 09:54:20;;;;;;;37.20;22.48;;;;;;;;;;5098751;28;20073;-71
2022/11/23 09:57:08;;;;;;;32.67;19.95;;;;;;;;;;5103835;28;20363;-71
2022/11/23 10:00:00;;;;;;;36.63;21.42;;;;;;;;;;5105252;28;20027;-72
2022/11/23 10:02:46;;;;;;;34.90;20.08;;;;;;;;;;5104538;28;20038;-71
2022/11/23 10:05:34;;;;;;;34.38;19.92;;;;;;;;;;5104903;28;20110;-71
2022/11/23 10:08:35;;;;;;;31.98;19.85;;;;;;;;;;5118439;28;20499;-71
2022/11/23 10:11:23;;;;;;;31.33;20.10;;;;;;;;;;5118311;28;20110;-71
2022/11/23 10:14:34;;;;;;;38.45;23.10;;;;;;;;;;5117758;28;20076;-72
2022/11/23 10:17:20;;;;;;;48.95;28.38;;;;;;;;;;5118070;28;20027;-72
2022/11/23 10:20:28;;;;;;;42.50;26.30;;;;;;;;;;5117644;28;20024;-73
2022/11/23 10:23:27;;;;;;;44.72;27.77;;;;;;;;;;5118453;28;20094;-72
2022/11/23 10:26:17;;;;;;;42.33;26.65;;;;;;;;;;5118626;28;20459;-72
2022/11/23 10:29:11;;;;;;;42.40;25.83;;;;;;;;;;5118449;28;20019;-72
2022/11/23 10:31:57;;;;;;;40.97;25.95;;;;;;;;;;5118777;28;20344;-72
2022/11/23 10:35:06;;;;;;;37.38;25.25;;;;;;;;;;5104334;28;20408;-72
2022/11/23 10:37:59;;;;;;;37.50;24.02;;;;;;;;;;5117874;28;20043;-71
2022/11/23 10:40:54;;;;;;;34.70;23.27;;;;;;;;;;5104487;28;20027;-73
2022/11/23 10:44:03;;;;;;;34.17;23.33;;;;;;;;;;5103667;28;20039;-73
2022/11/23 10:46:48;;;;;;;36.30;25.05;;;;;;;;;;5118333;28;20024;-71
2022/11/23 10:49:34;;;;;;;40.50;25.25;;;;;;;;;;5117643;28;20020;-73
2022/11/23 10:52:26;;;;;;;45.83;31.05;;;;;;;;;;5118219;28;20444;-71
2022/11/23 10:55:13;;;;;;;53.35;34.13;;;;;;;;;;5117082;28;20137;-72
2022/11/23 10:57:59;;;;;;;54.47;39.97;;;;;;;;;;5116084;28;20144;-73
2022/11/23 11:00:45;;;;;;;59.38;39.38;;;;;;;;;;5118487;28;20035;-73
2022/11/23 11:03:32;;;;;;;66.00;46.28;;;;;;;;;;5116892;28;20151;-72
2022/11/23 11:06:28;;;;;;;56.78;39.83;;;;;;;;;;5102310;28;20055;-71
2022/11/23 11:09:19;;;;;;;49.83;34.13;;;;;;;;;;5103633;28;20024;-72
2022/11/23 11:12:04;;;;;;;46.17;33.00;;;;;;;;;;5117385;28;20023;-72
2022/11/23 11:14:54;;;;;;;43.75;30.98;;;;;;;;;;5096346;28;20417;-73
2022/11/23 11:17:40;;;;;;;39.70;27.67;;;;;;;;;;5117130;28;20055;-71
2022/11/23 11:20:26;;;;;;;33.75;23.38;;;;;;;;;;5117636;28;20027;-73
2022/11/23 11:23:16;;;;;;;28.58;19.98;;;;;;;;;;5116890;28;20067;-72
2022/11/23 11:26:15;;;;;;;27.02;18.25;;;;;;;;;;5118246;28;20030;-71
2022/11/23 11:29:05;;;;;;;27.85;18.55;;;;;;;;;;5117592;28;20019;-73
2022/11/23 11:31:59;;;;;;;26.25;16.63;;;;;;;;;;5117456;28;20346;-72
2022/11/23 11:34:50;;;;;;;22.25;14.88;;;;;;;;;;5116916;28;20043;-72
2022/11/23 11:37:43;;;;;;;21.88;13.82;;;;;;;;;;5116346;28;20044;-72
2022/11/23 11:40:33;;;;;;;28.98;15.18;;;;;;;;;;5117343;28;20124;-72
2022/11/23 11:43:19;;;;;;;21.60;13.55;;;;;;;;;;5116533;28;20024;-71
2022/11/23 11:46:15;;;;;;;18.25;12.60;;;;;;;;;;5116480;28;20115;-73
2022/11/23 11:49:07;;;;;;;16.58;12.18;;;;;;;;;;5116784;28;20459;-72
2022/11/23 11:52:07;;;;;;;15.82;11.57;;;;;;;;;;5116944;28;20439;-72
2022/11/23 11:55:01;;;;;;;16.70;11.52;;;;;;;;;;5102988;28;20030;-72
2022/11/23 11:58:05;;;;;;;16.60;12.80;;;;;;;;;;5116239;28;20085;-72
2022/11/23 12:01:03;;;;;;;16.67;11.27;;;;;;;;;;5116325;28;20144;-72
2022/11/23 12:03:52;;;;;;;17.10;11.48;;;;;;;;;;5124729;28;20016;-73
2022/11/23 12:06:50;;;;;;;19.50;12.82;;;;;;;;;;5106567;28;20012;-74
2022/11/23 12:09:37;;;;;;;16.88;12.88;;;;;;;;;;5116105;28;20463;-73
2022/11/23 12:12:23;;;;;;;19.83;12.85;;;;;;;;;;5116362;28;20444;-73
2022/11/23 12:15:17;;;;;;;18.70;13.02;;;;;;;;;;5102633;28;20076;-73
2022/11/23 12:18:21;;;;;;;23.70;15.50;;;;;;;;;;5115931;28;20023;-72
2022/11/23 12:21:16;;;;;;;25.45;16.20;;;;;;;;;;5115864;28;20467;-74
2022/11/23 12:24:08;;;;;;;19.45;14.13;;;;;;;;;;5116546;28;20488;-73
2022/11/23 12:27:03;;;;;;;23.95;16.65;;;;;;;;;;5115929;28;20023;-72
2022/11/23 12:29:52;;;;;;;24.60;18.52;;;;;;;;;;5115805;28;20028;-73
2022/11/23 12:32:49;;;;;;;26.73;19.02;;;;;;;;;;5102072;28;20030;-72
2022/11/23 12:35:59;;;;;;;23.80;16.80;;;;;;;;;;5116401;28;20111;-74
2022/11/23 12:38:54;;;;;;;26.75;18.58;;;;;;;;;;5116201;28;20126;-73
2022/11/23 12:41:49;;;;;;;26.10;18.90;;;;;;;;;;5115436;28;20111;-73
2022/11/23 12:44:48;;;;;;;28.13;17.33;;;;;;;;;;5100609;28;20027;-72
2022/11/23 12:47:57;;;;;;;27.98;19.42;;;;;;;;;;5115380;28;20023;-73
2022/11/23 12:50:46;;;;;;;27.40;18.70;;;;;;;;;;5116753;27;20020;-72
2022/11/23 12:53:32;;;;;;;27.13;18.77;;;;;;;;;;5115323;28;20027;-73
2022/11/23 12:56:20;;;;;;;30.77;20.17;;;;;;;;;;5101655;28;20392;-73
2022/11/23 12:59:08;;;;;;;27.73;20.45;;;;;;;;;;5114864;28;20329;-73
2022/11/23 13:01:58;;;;;;;29.83;20.45;;;;;;;;;;5115805;28;20068;-72
2022/11/23 13:05:10;;;;;;;26.17;18.60;;;;;;;;;;5115929;28;20100;-72
2022/11/23 13:08:11;;;;;;;33.13;18.83;;;;;;;;;;5091087;28;20080;-73
2022/11/23 13:11:15;;;;;;;27.52;19.20;;;;;;;;;;5115197;28;20019;-74
2022/11/23 13:14:04;;;;;;;29.30;20.67;;;;;;;;;;5114815;28;20015;-74
2022/11/23 13:16:53;;;;;;;28.90;20.95;;;;;;;;;;5115251;28;20011;-74
2022/11/23 13:19:52;;;;;;;29.13;21.45;;;;;;;;;;5115348;28;20057;-74
2022/11/23 13:22:39;;;;;;;30.80;21.58;;;;;;;;;;5115335;28;20026;-74
2022/11/23 13:25:26;;;;;;;29.35;21.65;;;;;;;;;;5115786;28;20047;-73
2022/11/23 13:28:29;;;;;;;32.95;21.25;;;;;;;;;;5113907;28;20046;-73
2022/11/23 13:31:18;;;;;;;26.48;20.05;;;;;;;;;;5114125;28;20471;-73
2022/11/23 13:34:23;;;;;;;27.88;19.13;;;;;;;;;;5100525;28;20027;-73
2022/11/23 13:37:09;;;;;;;22.92;17.30;;;;;;;;;;5114085;28;20039;-73
2022/11/23 13:39:57;;;;;;;26.73;19.17;;;;;;;;;;5114222;28;20078;-71
2022/11/23 13:42:46;;;;;;;28.83;20.38;;;;;;;;;;5114115;28;20015;-73
2022/11/23 13:45:33;;;;;;;28.23;19.42;;;;;;;;;;5100866;28;20085;-73
2022/11/23 13:48:18;;;;;;;27.05;19.48;;;;;;;;;;5114341;28;20030;-76
2022/11/23 13:51:04;;;;;;;28.20;20.30;;;;;;;;;;5114924;28;20035;-76
2022/11/23 13:53:51;;;;;;;26.15;19.95;;;;;;;;;;5100694;28;20011;-76
2022/11/23 13:56:41;;;;;;;31.63;22.90;;;;;;;;;;5100788;28;20020;-76
2022/11/23 13:59:28;;;;;;;37.03;25.77;;;;;;;;;;5114392;28;20024;-77
2022/11/23 14:02:28;;;;;;;40.45;26.25;;;;;;;;;;5115131;28;20036;-76
2022/11/23 14:05:30;;;;;;;35.75;25.42;;;;;;;;;;5098628;28;20034;-77
2022/11/23 14:08:17;;;;;;;40.05;27.23;;;;;;;;;;5113857;28;20104;-73
2022/11/23 14:11:10;;;;;;;42.22;27.50;;;;;;;;;;5100454;28;20027;-71
2022/11/23 14:14:01;;;;;;;35.28;26.00;;;;;;;;;;5100164;28;20440;-76
2022/11/23 14:17:05;;;;;;;38.22;27.50;;;;;;;;;;5114920;28;20437;-77
2022/11/23 14:19:57;;;;;;;37.78;26.55;;;;;;;;;;5114435;28;20019;-77
2022/11/23 14:22:42;;;;;;;34.67;25.63;;;;;;;;;;5114406;28;20024;-76
2022/11/23 14:25:28;;;;;;;33.65;23.50;;;;;;;;;;5113818;28;20024;-75
2022/11/23 14:28:14;;;;;;;32.53;23.52;;;;;;;;;;5113365;28;20015;-72
2022/11/23 14:31:18;;;;;;;39.88;24.98;;;;;;;;;;5113672;28;20081;-74
2022/11/23 14:34:09;;;;;;;39.42;25.10;;;;;;;;;;5099854;28;20016;-68
2022/11/23 14:37:09;;;;;;;35.67;24.90;;;;;;;;;;5113828;28;20062;-74
2022/11/23 14:40:13;;;;;;;36.63;25.63;;;;;;;;;;5114703;28;20072;-73
2022/11/23 14:42:59;;;;;;;36.10;25.50;;;;;;;;;;5116327;28;20040;-74
2022/11/23 14:45:45;;;;;;;36.90;26.10;;;;;;;;;;5116814;28;20031;-73
2022/11/23 14:48:32;;;;;;;36.58;26.42;;;;;;;;;;5103754;28;20031;-74
2022/11/23 14:51:19;;;;;;;38.88;26.02;;;;;;;;;;5117351;28;20027;-71
2022/11/23 14:54:08;;;;;;;37.95;26.27;;;;;;;;;;5116868;28;20028;-70
2022/11/23 14:56:56;;;;;;;40.33;27.08;;;;;;;;;;5116812;28;20019;-76
2022/11/23 14:59:45;;;;;;;39.72;26.92;;;;;;;;;;5116658;28;20055;-76
2022/11/23 15:02:35;;;;;;;40.33;27.88;;;;;;;;;;5121305;28;20364;-70
2022/11/23 15:05:31;;;;;;;38.08;25.83;;;;;;;;;;5125701;28;20447;-72
2022/11/23 15:08:20;;;;;;;36.20;25.35;;;;;;;;;;5116950;28;20448;-72
2022/11/23 15:11:26;;;;;;;41.38;27.90;;;;;;;;;;5117264;28;20030;-72
2022/11/23 15:14:19;;;;;;;40.83;27.65;;;;;;;;;;5116520;28;20399;-74
2022/11/23 15:17:19;;;;;;;39.80;27.98;;;;;;;;;;5116568;28;20011;-78
2022/11/23 15:20:10;;;;;;;41.53;29.25;;;;;;;;;;5102220;28;20111;-78
2022/11/23 15:22:56;;;;;;;39.72;27.05;;;;;;;;;;5116362;28;20019;-75
2022/11/23 15:25:52;;;;;;;38.78;26.02;;;;;;;;;;5101852;28;20026;-77
2022/11/23 15:28:37;;;;;;;33.72;23.98;;;;;;;;;;5117886;28;20435;-74
2022/11/23 15:31:34;;;;;;;34.22;24.17;;;;;;;;;;5116724;28;20027;-75
2022/11/23 15:34:19;;;;;;;36.05;24.92;;;;;;;;;;5103392;28;20121;-75
2022/11/23 15:37:08;;;;;;;35.78;24.77;;;;;;;;;;5116010;28;20043;-74
2022/11/23 15:39:54;;;;;;;33.47;23.70;;;;;;;;;;5102080;28;20023;-76
2022/11/23 15:42:41;;;;;;;38.90;26.27;;;;;;;;;;5116581;28;20061;-75
2022/11/23 15:45:33;;;;;;;40.45;27.02;;;;;;;;;;5116870;28;20119;-76
2022/11/23 15:48:21;;;;;;;40.10;27.70;;;;;;;;;;5116370;28;20028;-78
2022/11/23 15:51:08;;;;;;;37.65;27.58;;;;;;;;;;5115832;28;20420;-74
2022/11/23 15:53:54;;;;;;;41.42;26.98;;;;;;;;;;5115613;28;20020;-74
2022/11/23 15:56:43;;;;;;;48.67;31.35;;;;;;;;;;5115570;28;20428;-70
2022/11/23 15:59:31;;;;;;;39.22;28.42;;;;;;;;;;5101821;28;20027;-74
2022/11/23 16:02:20;;;;;;;42.80;28.55;;;;;;;;;;5101919;28;20050;-74
2022/11/23 16:05:14;;;;;;;39.28;26.58;;;;;;;;;;5115915;28;20023;-73
2022/11/23 16:08:01;;;;;;;48.05;31.92;;;;;;;;;;5115774;28;20023;-74
2022/11/23 16:10:53;;;;;;;46.70;29.15;;;;;;;;;;5116411;28;20031;-74
2022/11/23 16:13:39;;;;;;;43.85;30.02;;;;;;;;;;5102618;28;20106;-74
2022/11/23 16:16:25;;;;;;;46.58;31.58;;;;;;;;;;5101638;28;20020;-75
2022/11/23 16:19:25;;;;;;;42.90;29.67;;;;;;;;;;5116846;28;20058;-73
2022/11/23 16:22:15;;;;;;;45.88;28.52;;;;;;;;;;5115880;28;20359;-74
2022/11/23 16:25:06;;;;;;;44.50;29.73;;;;;;;;;;5116029;28;20077;-74